sensor_id;sensor_type;location;lat;lon;timestamp;P1;durP1;ratioP1;P2;durP2;ratioP2
10465;SDS011;5280;42.600;23.556;2023-02-22T00:01:08;5.07;;;3.00;;
10465;SDS011;5280;42.600;23.556;2023-02-22T00:03:47;4.43;;;3.03;;
10465;SDS011;5280;42.600;23.556;2023-02-22T00:06:18;5.30;;;3.23;;
10465;SDS011;5280;42.600;23.556;2023-02-22T00:08:49;4.30;;;3.03;;
10465;SDS011;5280;42.600;23.556;2023-02-22T00:11:16;5.33;;;3.00;;
10465;SDS011;5280;42.600;23.556;2023-02-22T00:13:44;5.30;;;3.37;;
10465;SDS011;5280;42.600;23.556;2023-02-22T00:16:14;4.67;;;2.70;;
10465;SDS011;5280;42.600;23.556;2023-02-22T00:18:42;4.37;;;3.30;;
10465;SDS011;5280;42.600;23.556;2023-02-22T00:21:10;2.83;;;2.57;;
10465;SDS011;5280;42.600;23.556;2023-02-22T00:23:41;5.93;;;2.50;;
10465;SDS011;5280;42.600;23.556;2023-02-22T00:26:11;4.40;;;2.50;;
10465;SDS011;5280;42.600;23.556;2023-02-22T00:28:42;4.20;;;2.70;;
10465;SDS011;5280;42.600;23.556;2023-02-22T00:31:09;2.63;;;2.43;;
10465;SDS011;5280;42.600;23.556;2023-02-22T00:33:39;2.53;;;2.30;;
10465;SDS011;5280;42.600;23.556;2023-02-22T00:36:06;5.00;;;2.50;;
10465;SDS011;5280;42.600;23.556;2023-02-22T00:38:34;4.40;;;2.63;;
10465;SDS011;5280;42.600;23.556;2023-02-22T00:41:03;3.30;;;2.57;;
10465;SDS011;5280;42.600;23.556;2023-02-22T00:43:30;2.77;;;2.10;;
10465;SDS011;5280;42.600;23.556;2023-02-22T00:45:56;2.60;;;2.40;;
10465;SDS011;5280;42.600;23.556;2023-02-22T00:48:23;2.90;;;2.53;;
10465;SDS011;5280;42.600;23.556;2023-02-22T00:50:51;2.30;;;2.10;;
10465;SDS011;5280;42.600;23.556;2023-02-22T00:53:19;2.50;;;2.10;;
10465;SDS011;5280;42.600;23.556;2023-02-22T00:55:47;2.50;;;1.97;;
10465;SDS011;5280;42.600;23.556;2023-02-22T00:58:15;4.93;;;2.17;;
10465;SDS011;5280;42.600;23.556;2023-02-22T01:00:42;2.80;;;2.00;;
10465;SDS011;5280;42.600;23.556;2023-02-22T01:03:11;3.37;;;2.00;;
10465;SDS011;5280;42.600;23.556;2023-02-22T01:05:39;2.30;;;2.10;;
10465;SDS011;5280;42.600;23.556;2023-02-22T01:08:06;4.07;;;2.10;;
10465;SDS011;5280;42.600;23.556;2023-02-22T01:10:34;2.67;;;1.77;;
10465;SDS011;5280;42.600;23.556;2023-02-22T01:13:02;3.43;;;2.23;;
10465;SDS011;5280;42.600;23.556;2023-02-22T01:15:34;2.63;;;1.97;;
10465;SDS011;5280;42.600;23.556;2023-02-22T01:18:02;3.87;;;2.00;;
10465;SDS011;5280;42.600;23.556;2023-02-22T01:20:31;1.93;;;1.77;;
10465;SDS011;5280;42.600;23.556;2023-02-22T01:22:59;2.13;;;1.93;;
10465;SDS011;5280;42.600;23.556;2023-02-22T01:25:30;3.50;;;1.90;;
10465;SDS011;5280;42.600;23.556;2023-02-22T01:28:01;1.83;;;1.73;;
10465;SDS011;5280;42.600;23.556;2023-02-22T01:30:30;2.03;;;1.87;;
10465;SDS011;5280;42.600;23.556;2023-02-22T01:33:01;2.20;;;1.80;;
10465;SDS011;5280;42.600;23.556;2023-02-22T01:35:31;1.67;;;1.57;;
10465;SDS011;5280;42.600;23.556;2023-02-22T01:37:59;3.00;;;1.80;;
10465;SDS011;5280;42.600;23.556;2023-02-22T01:40:26;2.07;;;1.83;;
10465;SDS011;5280;42.600;23.556;2023-02-22T01:42:55;1.77;;;1.67;;
10465;SDS011;5280;42.600;23.556;2023-02-22T01:45:46;2.43;;;1.70;;
10465;SDS011;5280;42.600;23.556;2023-02-22T01:48:31;2.30;;;1.70;;
10465;SDS011;5280;42.600;23.556;2023-02-22T01:51:05;2.17;;;1.63;;
10465;SDS011;5280;42.600;23.556;2023-02-22T01:53:37;1.87;;;1.60;;
10465;SDS011;5280;42.600;23.556;2023-02-22T01:56:09;1.70;;;1.47;;
10465;SDS011;5280;42.600;23.556;2023-02-22T01:58:37;1.83;;;1.60;;
10465;SDS011;5280;42.600;23.556;2023-02-22T02:01:06;2.40;;;1.90;;
10465;SDS011;5280;42.600;23.556;2023-02-22T02:03:36;2.50;;;1.70;;
10465;SDS011;5280;42.600;23.556;2023-02-22T02:06:07;1.83;;;1.53;;
10465;SDS011;5280;42.600;23.556;2023-02-22T02:08:38;1.63;;;1.53;;
10465;SDS011;5280;42.600;23.556;2023-02-22T02:11:17;1.80;;;1.67;;
10465;SDS011;5280;42.600;23.556;2023-02-22T02:13:45;2.60;;;1.63;;
10465;SDS011;5280;42.600;23.556;2023-02-22T02:16:14;1.93;;;1.73;;
10465;SDS011;5280;42.600;23.556;2023-02-22T02:18:43;1.60;;;1.50;;
10465;SDS011;5280;42.600;23.556;2023-02-22T02:24:11;2.73;;;1.40;;
10465;SDS011;5280;42.600;23.556;2023-02-22T02:27:09;1.30;;;1.20;;
10465;SDS011;5280;42.600;23.556;2023-02-22T02:32:57;1.40;;;1.30;;
10465;SDS011;5280;42.600;23.556;2023-02-22T02:35:33;1.60;;;1.50;;
10465;SDS011;5280;42.600;23.556;2023-02-22T02:38:09;2.03;;;1.40;;
10465;SDS011;5280;42.600;23.556;2023-02-22T02:40:47;1.40;;;1.30;;
10465;SDS011;5280;42.600;23.556;2023-02-22T02:43:20;1.53;;;1.23;;
10465;SDS011;5280;42.600;23.556;2023-02-22T02:45:53;2.10;;;1.20;;
10465;SDS011;5280;42.600;23.556;2023-02-22T02:48:25;1.53;;;1.43;;
10465;SDS011;5280;42.600;23.556;2023-02-22T02:50:54;2.27;;;1.40;;
10465;SDS011;5280;42.600;23.556;2023-02-22T02:53:24;2.37;;;1.30;;
10465;SDS011;5280;42.600;23.556;2023-02-22T02:55:57;3.63;;;1.60;;
10465;SDS011;5280;42.600;23.556;2023-02-22T02:58:24;3.17;;;1.83;;
10465;SDS011;5280;42.600;23.556;2023-02-22T03:00:52;1.63;;;1.40;;
10465;SDS011;5280;42.600;23.556;2023-02-22T03:03:35;1.90;;;1.20;;
10465;SDS011;5280;42.600;23.556;2023-02-22T03:06:20;1.87;;;1.50;;
10465;SDS011;5280;42.600;23.556;2023-02-22T03:09:15;1.30;;;1.20;;
10465;SDS011;5280;42.600;23.556;2023-02-22T03:11:53;1.70;;;1.40;;
10465;SDS011;5280;42.600;23.556;2023-02-22T03:14:28;1.70;;;1.33;;
10465;SDS011;5280;42.600;23.556;2023-02-22T03:17:06;3.00;;;1.60;;
10465;SDS011;5280;42.600;23.556;2023-02-22T03:19:43;1.50;;;1.30;;
10465;SDS011;5280;42.600;23.556;2023-02-22T03:22:13;1.83;;;1.43;;
10465;SDS011;5280;42.600;23.556;2023-02-22T03:24:46;1.50;;;1.40;;
10465;SDS011;5280;42.600;23.556;2023-02-22T03:27:22;1.20;;;1.20;;
10465;SDS011;5280;42.600;23.556;2023-02-22T03:29:54;2.63;;;1.40;;
10465;SDS011;5280;42.600;23.556;2023-02-22T03:32:31;1.57;;;1.37;;
10465;SDS011;5280;42.600;23.556;2023-02-22T03:35:05;1.93;;;1.50;;
10465;SDS011;5280;42.600;23.556;2023-02-22T03:37:37;1.83;;;1.20;;
10465;SDS011;5280;42.600;23.556;2023-02-22T03:40:08;2.23;;;1.27;;
10465;SDS011;5280;42.600;23.556;2023-02-22T03:42:39;2.13;;;1.20;;
10465;SDS011;5280;42.600;23.556;2023-02-22T03:45:12;1.33;;;1.23;;
10465;SDS011;5280;42.600;23.556;2023-02-22T03:47:44;1.80;;;1.33;;
10465;SDS011;5280;42.600;23.556;2023-02-22T03:50:16;1.63;;;1.33;;
10465;SDS011;5280;42.600;23.556;2023-02-22T03:52:45;1.50;;;1.40;;
10465;SDS011;5280;42.600;23.556;2023-02-22T03:55:13;2.60;;;1.30;;
10465;SDS011;5280;42.600;23.556;2023-02-22T03:57:42;1.40;;;1.30;;
10465;SDS011;5280;42.600;23.556;2023-02-22T04:00:14;1.50;;;1.40;;
10465;SDS011;5280;42.600;23.556;2023-02-22T04:02:46;1.23;;;1.23;;
10465;SDS011;5280;42.600;23.556;2023-02-22T04:05:13;1.80;;;1.30;;
10465;SDS011;5280;42.600;23.556;2023-02-22T04:07:41;1.20;;;1.10;;
10465;SDS011;5280;42.600;23.556;2023-02-22T04:10:09;1.40;;;1.30;;
10465;SDS011;5280;42.600;23.556;2023-02-22T04:12:36;1.33;;;1.10;;
10465;SDS011;5280;42.600;23.556;2023-02-22T04:15:04;1.57;;;1.40;;
10465;SDS011;5280;42.600;23.556;2023-02-22T04:17:32;2.23;;;1.20;;
10465;SDS011;5280;42.600;23.556;2023-02-22T04:19:59;1.53;;;1.33;;
10465;SDS011;5280;42.600;23.556;2023-02-22T04:22:26;1.80;;;1.33;;
10465;SDS011;5280;42.600;23.556;2023-02-22T04:24:54;1.70;;;1.33;;
10465;SDS011;5280;42.600;23.556;2023-02-22T04:27:21;1.73;;;1.40;;
10465;SDS011;5280;42.600;23.556;2023-02-22T04:29:48;1.27;;;1.17;;
10465;SDS011;5280;42.600;23.556;2023-02-22T04:32:15;1.73;;;1.37;;
10465;SDS011;5280;42.600;23.556;2023-02-22T04:34:42;2.37;;;1.30;;
10465;SDS011;5280;42.600;23.556;2023-02-22T04:37:10;1.70;;;1.40;;
10465;SDS011;5280;42.600;23.556;2023-02-22T04:39:37;1.73;;;1.40;;
10465;SDS011;5280;42.600;23.556;2023-02-22T04:42:05;2.47;;;1.37;;
10465;SDS011;5280;42.600;23.556;2023-02-22T04:44:32;3.80;;;1.37;;
10465;SDS011;5280;42.600;23.556;2023-02-22T04:46:59;1.90;;;1.60;;
10465;SDS011;5280;42.600;23.556;2023-02-22T04:49:26;2.57;;;1.20;;
10465;SDS011;5280;42.600;23.556;2023-02-22T04:51:53;1.37;;;1.27;;
10465;SDS011;5280;42.600;23.556;2023-02-22T04:54:20;2.20;;;1.27;;
10465;SDS011;5280;42.600;23.556;2023-02-22T04:56:46;1.50;;;1.40;;
10465;SDS011;5280;42.600;23.556;2023-02-22T04:59:14;2.10;;;1.30;;
10465;SDS011;5280;42.600;23.556;2023-02-22T05:01:41;2.03;;;1.33;;
10465;SDS011;5280;42.600;23.556;2023-02-22T05:04:08;1.37;;;1.27;;
10465;SDS011;5280;42.600;23.556;2023-02-22T05:06:35;2.20;;;1.17;;
10465;SDS011;5280;42.600;23.556;2023-02-22T05:09:02;1.43;;;1.17;;
10465;SDS011;5280;42.600;23.556;2023-02-22T05:11:29;1.90;;;1.10;;
10465;SDS011;5280;42.600;23.556;2023-02-22T05:13:55;1.40;;;1.30;;
10465;SDS011;5280;42.600;23.556;2023-02-22T05:16:23;1.30;;;1.20;;
10465;SDS011;5280;42.600;23.556;2023-02-22T05:18:50;1.57;;;1.23;;
10465;SDS011;5280;42.600;23.556;2023-02-22T05:21:22;1.60;;;1.50;;
10465;SDS011;5280;42.600;23.556;2023-02-22T05:23:49;1.50;;;1.40;;
10465;SDS011;5280;42.600;23.556;2023-02-22T05:26:16;1.87;;;1.33;;
10465;SDS011;5280;42.600;23.556;2023-02-22T05:28:43;4.43;;;1.50;;
10465;SDS011;5280;42.600;23.556;2023-02-22T05:31:10;1.50;;;1.40;;
10465;SDS011;5280;42.600;23.556;2023-02-22T05:33:38;1.97;;;1.43;;
10465;SDS011;5280;42.600;23.556;2023-02-22T05:36:06;1.60;;;1.47;;
10465;SDS011;5280;42.600;23.556;2023-02-22T05:38:33;1.40;;;1.30;;
10465;SDS011;5280;42.600;23.556;2023-02-22T05:41:07;1.23;;;1.20;;
10465;SDS011;5280;42.600;23.556;2023-02-22T05:43:34;1.53;;;1.43;;
10465;SDS011;5280;42.600;23.556;2023-02-22T05:46:00;2.10;;;1.30;;
10465;SDS011;5280;42.600;23.556;2023-02-22T05:48:27;2.80;;;1.50;;
10465;SDS011;5280;42.600;23.556;2023-02-22T05:50:56;1.80;;;1.50;;
10465;SDS011;5280;42.600;23.556;2023-02-22T05:53:23;1.93;;;1.73;;
10465;SDS011;5280;42.600;23.556;2023-02-22T05:55:50;2.67;;;1.50;;
10465;SDS011;5280;42.600;23.556;2023-02-22T05:58:17;5.60;;;1.70;;
10465;SDS011;5280;42.600;23.556;2023-02-22T06:00:44;1.67;;;1.53;;
10465;SDS011;5280;42.600;23.556;2023-02-22T06:03:11;1.83;;;1.70;;
10465;SDS011;5280;42.600;23.556;2023-02-22T06:05:38;2.03;;;1.53;;
10465;SDS011;5280;42.600;23.556;2023-02-22T06:08:06;2.23;;;1.87;;
10465;SDS011;5280;42.600;23.556;2023-02-22T06:10:34;1.97;;;1.40;;
10465;SDS011;5280;42.600;23.556;2023-02-22T06:13:01;1.77;;;1.67;;
10465;SDS011;5280;42.600;23.556;2023-02-22T06:15:29;1.90;;;1.53;;
10465;SDS011;5280;42.600;23.556;2023-02-22T06:17:59;1.50;;;1.40;;
10465;SDS011;5280;42.600;23.556;2023-02-22T06:20:28;1.70;;;1.60;;
10465;SDS011;5280;42.600;23.556;2023-02-22T06:22:57;2.00;;;1.80;;
10465;SDS011;5280;42.600;23.556;2023-02-22T06:25:26;2.07;;;1.93;;
10465;SDS011;5280;42.600;23.556;2023-02-22T06:27:55;2.40;;;1.70;;
10465;SDS011;5280;42.600;23.556;2023-02-22T06:30:23;5.30;;;2.47;;
10465;SDS011;5280;42.600;23.556;2023-02-22T06:32:52;5.97;;;3.00;;
10465;SDS011;5280;42.600;23.556;2023-02-22T06:35:21;6.03;;;3.07;;
10465;SDS011;5280;42.600;23.556;2023-02-22T06:37:48;3.07;;;2.17;;
10465;SDS011;5280;42.600;23.556;2023-02-22T06:40:17;2.57;;;1.83;;
10465;SDS011;5280;42.600;23.556;2023-02-22T06:42:47;2.47;;;1.90;;
10465;SDS011;5280;42.600;23.556;2023-02-22T06:45:14;2.37;;;1.70;;
10465;SDS011;5280;42.600;23.556;2023-02-22T06:47:42;4.97;;;3.33;;
10465;SDS011;5280;42.600;23.556;2023-02-22T06:50:16;5.30;;;3.60;;
10465;SDS011;5280;42.600;23.556;2023-02-22T06:52:45;7.07;;;3.87;;
10465;SDS011;5280;42.600;23.556;2023-02-22T06:55:16;7.63;;;4.83;;
10465;SDS011;5280;42.600;23.556;2023-02-22T06:57:49;7.57;;;4.80;;
10465;SDS011;5280;42.600;23.556;2023-02-22T07:00:16;7.87;;;5.13;;
10465;SDS011;5280;42.600;23.556;2023-02-22T07:02:44;8.30;;;5.37;;
10465;SDS011;5280;42.600;23.556;2023-02-22T07:05:12;7.83;;;6.23;;
10465;SDS011;5280;42.600;23.556;2023-02-22T07:07:41;8.73;;;6.33;;
10465;SDS011;5280;42.600;23.556;2023-02-22T07:10:15;11.20;;;7.07;;
10465;SDS011;5280;42.600;23.556;2023-02-22T07:12:44;10.80;;;7.00;;
10465;SDS011;5280;42.600;23.556;2023-02-22T07:15:12;10.60;;;7.57;;
10465;SDS011;5280;42.600;23.556;2023-02-22T07:17:38;13.00;;;8.53;;
10465;SDS011;5280;42.600;23.556;2023-02-22T07:20:06;11.17;;;8.23;;
10465;SDS011;5280;42.600;23.556;2023-02-22T07:22:35;12.00;;;7.17;;
10465;SDS011;5280;42.600;23.556;2023-02-22T07:25:03;10.63;;;7.23;;
10465;SDS011;5280;42.600;23.556;2023-02-22T07:27:30;11.53;;;6.83;;
10465;SDS011;5280;42.600;23.556;2023-02-22T07:29:57;10.07;;;7.10;;
10465;SDS011;5280;42.600;23.556;2023-02-22T07:32:25;13.50;;;7.83;;
10465;SDS011;5280;42.600;23.556;2023-02-22T07:34:52;11.17;;;7.27;;
10465;SDS011;5280;42.600;23.556;2023-02-22T07:37:19;9.70;;;6.80;;
10465;SDS011;5280;42.600;23.556;2023-02-22T07:39:46;11.13;;;7.07;;
10465;SDS011;5280;42.600;23.556;2023-02-22T07:42:13;9.43;;;6.77;;
10465;SDS011;5280;42.600;23.556;2023-02-22T07:44:39;11.03;;;7.13;;
10465;SDS011;5280;42.600;23.556;2023-02-22T07:47:06;9.43;;;7.10;;
10465;SDS011;5280;42.600;23.556;2023-02-22T07:49:38;7.17;;;6.17;;
10465;SDS011;5280;42.600;23.556;2023-02-22T07:52:04;7.63;;;5.40;;
10465;SDS011;5280;42.600;23.556;2023-02-22T07:54:32;8.40;;;5.33;;
10465;SDS011;5280;42.600;23.556;2023-02-22T07:56:59;6.00;;;4.77;;
10465;SDS011;5280;42.600;23.556;2023-02-22T07:59:27;8.67;;;4.70;;
10465;SDS011;5280;42.600;23.556;2023-02-22T08:01:54;6.37;;;4.73;;
10465;SDS011;5280;42.600;23.556;2023-02-22T08:04:21;5.13;;;4.20;;
10465;SDS011;5280;42.600;23.556;2023-02-22T08:06:49;5.73;;;4.03;;
10465;SDS011;5280;42.600;23.556;2023-02-22T08:09:16;4.10;;;3.67;;
10465;SDS011;5280;42.600;23.556;2023-02-22T08:11:43;6.83;;;4.13;;
10465;SDS011;5280;42.600;23.556;2023-02-22T08:14:10;6.67;;;4.00;;
10465;SDS011;5280;42.600;23.556;2023-02-22T08:16:37;7.57;;;5.03;;
10465;SDS011;5280;42.600;23.556;2023-02-22T08:19:04;6.90;;;5.03;;
10465;SDS011;5280;42.600;23.556;2023-02-22T08:21:31;6.97;;;5.33;;
10465;SDS011;5280;42.600;23.556;2023-02-22T08:23:59;6.43;;;4.87;;
10465;SDS011;5280;42.600;23.556;2023-02-22T08:26:26;9.37;;;5.83;;
10465;SDS011;5280;42.600;23.556;2023-02-22T08:28:53;8.80;;;5.33;;
10465;SDS011;5280;42.600;23.556;2023-02-22T08:31:21;6.60;;;4.67;;
10465;SDS011;5280;42.600;23.556;2023-02-22T08:33:47;6.93;;;4.80;;
10465;SDS011;5280;42.600;23.556;2023-02-22T08:36:15;4.90;;;4.00;;
10465;SDS011;5280;42.600;23.556;2023-02-22T08:38:42;5.30;;;4.40;;
10465;SDS011;5280;42.600;23.556;2023-02-22T08:41:11;6.23;;;4.07;;
10465;SDS011;5280;42.600;23.556;2023-02-22T08:43:37;4.60;;;3.63;;
10465;SDS011;5280;42.600;23.556;2023-02-22T08:46:04;5.07;;;4.23;;
10465;SDS011;5280;42.600;23.556;2023-02-22T08:48:31;6.03;;;3.57;;
10465;SDS011;5280;42.600;23.556;2023-02-22T08:50:58;7.37;;;4.10;;
10465;SDS011;5280;42.600;23.556;2023-02-22T08:53:24;6.20;;;3.70;;
10465;SDS011;5280;42.600;23.556;2023-02-22T08:55:51;6.83;;;4.00;;
10465;SDS011;5280;42.600;23.556;2023-02-22T08:58:20;5.53;;;3.80;;
10465;SDS011;5280;42.600;23.556;2023-02-22T09:00:47;4.20;;;3.80;;
10465;SDS011;5280;42.600;23.556;2023-02-22T09:03:13;4.47;;;3.70;;
10465;SDS011;5280;42.600;23.556;2023-02-22T09:05:41;4.13;;;3.73;;
10465;SDS011;5280;42.600;23.556;2023-02-22T09:08:08;5.27;;;4.10;;
10465;SDS011;5280;42.600;23.556;2023-02-22T09:10:35;4.57;;;4.00;;
10465;SDS011;5280;42.600;23.556;2023-02-22T09:13:02;6.40;;;4.50;;
10465;SDS011;5280;42.600;23.556;2023-02-22T09:15:32;4.93;;;4.10;;
10465;SDS011;5280;42.600;23.556;2023-02-22T09:18:02;5.27;;;3.97;;
10465;SDS011;5280;42.600;23.556;2023-02-22T09:20:29;7.43;;;4.47;;
10465;SDS011;5280;42.600;23.556;2023-02-22T09:22:56;5.27;;;4.00;;
10465;SDS011;5280;42.600;23.556;2023-02-22T09:25:23;5.03;;;3.90;;
10465;SDS011;5280;42.600;23.556;2023-02-22T09:27:51;4.60;;;4.03;;
10465;SDS011;5280;42.600;23.556;2023-02-22T09:30:20;4.80;;;4.20;;
10465;SDS011;5280;42.600;23.556;2023-02-22T09:32:51;6.27;;;4.30;;
10465;SDS011;5280;42.600;23.556;2023-02-22T09:35:19;8.70;;;4.67;;
10465;SDS011;5280;42.600;23.556;2023-02-22T09:37:51;5.43;;;3.97;;
10465;SDS011;5280;42.600;23.556;2023-02-22T09:43:01;6.20;;;4.70;;
10465;SDS011;5280;42.600;23.556;2023-02-22T09:45:42;7.07;;;4.60;;
10465;SDS011;5280;42.600;23.556;2023-02-22T09:48:18;5.57;;;4.27;;
10465;SDS011;5280;42.600;23.556;2023-02-22T09:50:50;6.27;;;4.70;;
10465;SDS011;5280;42.600;23.556;2023-02-22T09:53:21;7.47;;;4.80;;
10465;SDS011;5280;42.600;23.556;2023-02-22T09:55:55;7.70;;;4.13;;
10465;SDS011;5280;42.600;23.556;2023-02-22T09:58:29;5.63;;;4.07;;
10465;SDS011;5280;42.600;23.556;2023-02-22T10:01:02;5.37;;;4.53;;
10465;SDS011;5280;42.600;23.556;2023-02-22T10:03:41;5.33;;;4.77;;
10465;SDS011;5280;42.600;23.556;2023-02-22T10:06:15;9.77;;;4.37;;
10465;SDS011;5280;42.600;23.556;2023-02-22T10:08:48;4.90;;;4.37;;
10465;SDS011;5280;42.600;23.556;2023-02-22T10:11:21;7.63;;;5.03;;
10465;SDS011;5280;42.600;23.556;2023-02-22T10:14:04;6.30;;;5.00;;
10465;SDS011;5280;42.600;23.556;2023-02-22T10:16:44;6.47;;;5.23;;
10465;SDS011;5280;42.600;23.556;2023-02-22T10:19:25;8.37;;;5.83;;
10465;SDS011;5280;42.600;23.556;2023-02-22T10:24:54;6.77;;;6.13;;
10465;SDS011;5280;42.600;23.556;2023-02-22T10:27:27;10.83;;;5.93;;
10465;SDS011;5280;42.600;23.556;2023-02-22T10:29:59;7.77;;;5.43;;
10465;SDS011;5280;42.600;23.556;2023-02-22T10:32:34;12.13;;;6.13;;
10465;SDS011;5280;42.600;23.556;2023-02-22T10:35:15;6.40;;;4.97;;
10465;SDS011;5280;42.600;23.556;2023-02-22T10:37:45;7.80;;;5.30;;
10465;SDS011;5280;42.600;23.556;2023-02-22T10:40:19;8.00;;;5.43;;
10465;SDS011;5280;42.600;23.556;2023-02-22T10:42:56;6.23;;;5.10;;
10465;SDS011;5280;42.600;23.556;2023-02-22T10:45:26;7.83;;;5.37;;
10465;SDS011;5280;42.600;23.556;2023-02-22T10:47:56;7.50;;;5.77;;
10465;SDS011;5280;42.600;23.556;2023-02-22T10:50:29;6.93;;;4.97;;
10465;SDS011;5280;42.600;23.556;2023-02-22T10:52:57;6.10;;;4.77;;
10465;SDS011;5280;42.600;23.556;2023-02-22T10:55:23;7.63;;;4.60;;
10465;SDS011;5280;42.600;23.556;2023-02-22T10:57:57;6.87;;;4.20;;
10465;SDS011;5280;42.600;23.556;2023-02-22T11:00:28;8.27;;;4.20;;
10465;SDS011;5280;42.600;23.556;2023-02-22T11:02:57;5.30;;;3.93;;
10465;SDS011;5280;42.600;23.556;2023-02-22T11:05:28;5.87;;;3.60;;
10465;SDS011;5280;42.600;23.556;2023-02-22T11:08:14;5.37;;;3.30;;
10465;SDS011;5280;42.600;23.556;2023-02-22T11:10:48;5.47;;;3.17;;
10465;SDS011;5280;42.600;23.556;2023-02-22T11:13:16;3.27;;;2.97;;
10465;SDS011;5280;42.600;23.556;2023-02-22T11:15:43;5.23;;;3.00;;
10465;SDS011;5280;42.600;23.556;2023-02-22T11:18:20;3.33;;;2.70;;
10465;SDS011;5280;42.600;23.556;2023-02-22T11:20:59;5.97;;;2.30;;
10465;SDS011;5280;42.600;23.556;2023-02-22T11:23:28;3.73;;;2.33;;
10465;SDS011;5280;42.600;23.556;2023-02-22T11:26:02;3.77;;;2.40;;
10465;SDS011;5280;42.600;23.556;2023-02-22T11:28:32;3.50;;;2.70;;
10465;SDS011;5280;42.600;23.556;2023-02-22T11:31:08;2.90;;;2.50;;
10465;SDS011;5280;42.600;23.556;2023-02-22T11:33:38;4.00;;;2.50;;
10465;SDS011;5280;42.600;23.556;2023-02-22T11:36:13;3.43;;;2.37;;
10465;SDS011;5280;42.600;23.556;2023-02-22T11:38:56;3.67;;;2.80;;
10465;SDS011;5280;42.600;23.556;2023-02-22T11:41:25;3.77;;;2.30;;
10465;SDS011;5280;42.600;23.556;2023-02-22T11:44:10;1.97;;;1.80;;
10465;SDS011;5280;42.600;23.556;2023-02-22T11:46:39;2.27;;;2.07;;
10465;SDS011;5280;42.600;23.556;2023-02-22T11:49:09;2.13;;;1.97;;
10465;SDS011;5280;42.600;23.556;2023-02-22T11:51:44;2.43;;;2.13;;
10465;SDS011;5280;42.600;23.556;2023-02-22T11:54:28;2.27;;;1.60;;
10465;SDS011;5280;42.600;23.556;2023-02-22T11:57:10;4.60;;;1.77;;
10465;SDS011;5280;42.600;23.556;2023-02-22T11:59:49;1.90;;;1.80;;
10465;SDS011;5280;42.600;23.556;2023-02-22T12:02:37;2.33;;;1.80;;
10465;SDS011;5280;42.600;23.556;2023-02-22T12:05:18;2.60;;;1.60;;
10465;SDS011;5280;42.600;23.556;2023-02-22T12:08:07;1.60;;;1.50;;
10465;SDS011;5280;42.600;23.556;2023-02-22T12:10:47;1.40;;;1.30;;
10465;SDS011;5280;42.600;23.556;2023-02-22T12:13:28;1.50;;;1.40;;
10465;SDS011;5280;42.600;23.556;2023-02-22T12:16:12;1.10;;;1.10;;
10465;SDS011;5280;42.600;23.556;2023-02-22T12:18:52;2.47;;;1.30;;
10465;SDS011;5280;42.600;23.556;2023-02-22T12:21:30;1.50;;;1.40;;
10465;SDS011;5280;42.600;23.556;2023-02-22T12:24:04;2.03;;;1.37;;
10465;SDS011;5280;42.600;23.556;2023-02-22T12:26:38;1.50;;;1.40;;
10465;SDS011;5280;42.600;23.556;2023-02-22T12:29:10;1.87;;;1.47;;
10465;SDS011;5280;42.600;23.556;2023-02-22T12:31:41;3.97;;;1.80;;
10465;SDS011;5280;42.600;23.556;2023-02-22T12:34:12;1.40;;;1.30;;
10465;SDS011;5280;42.600;23.556;2023-02-22T12:36:58;6.83;;;1.67;;
10465;SDS011;5280;42.600;23.556;2023-02-22T12:39:38;3.00;;;1.90;;
10465;SDS011;5280;42.600;23.556;2023-02-22T12:42:15;4.13;;;1.93;;
10465;SDS011;5280;42.600;23.556;2023-02-22T12:44:46;2.03;;;1.90;;
10465;SDS011;5280;42.600;23.556;2023-02-22T12:47:20;2.17;;;1.97;;
10465;SDS011;5280;42.600;23.556;2023-02-22T12:49:54;3.63;;;2.23;;
10465;SDS011;5280;42.600;23.556;2023-02-22T12:52:31;4.03;;;2.53;;
10465;SDS011;5280;42.600;23.556;2023-02-22T12:55:08;3.67;;;2.30;;
10465;SDS011;5280;42.600;23.556;2023-02-22T12:57:41;3.03;;;2.40;;
10465;SDS011;5280;42.600;23.556;2023-02-22T13:00:14;3.27;;;2.27;;
10465;SDS011;5280;42.600;23.556;2023-02-22T13:02:49;3.60;;;2.00;;
10465;SDS011;5280;42.600;23.556;2023-02-22T13:05:22;6.53;;;3.13;;
10465;SDS011;5280;42.600;23.556;2023-02-22T13:07:52;3.47;;;2.50;;
10465;SDS011;5280;42.600;23.556;2023-02-22T13:10:32;2.70;;;2.43;;
10465;SDS011;5280;42.600;23.556;2023-02-22T13:13:19;4.13;;;2.43;;
10465;SDS011;5280;42.600;23.556;2023-02-22T13:15:55;2.73;;;2.50;;
10465;SDS011;5280;42.600;23.556;2023-02-22T13:18:30;3.50;;;2.37;;
10465;SDS011;5280;42.600;23.556;2023-02-22T13:21:02;4.20;;;2.57;;
10465;SDS011;5280;42.600;23.556;2023-02-22T13:23:37;2.53;;;2.30;;
10465;SDS011;5280;42.600;23.556;2023-02-22T13:26:12;2.17;;;2.03;;
10465;SDS011;5280;42.600;23.556;2023-02-22T13:28:45;4.00;;;2.20;;
10465;SDS011;5280;42.600;23.556;2023-02-22T13:31:21;2.60;;;2.17;;
10465;SDS011;5280;42.600;23.556;2023-02-22T13:34:04;2.10;;;1.90;;
10465;SDS011;5280;42.600;23.556;2023-02-22T13:36:44;2.80;;;2.13;;
10465;SDS011;5280;42.600;23.556;2023-02-22T13:45:41;2.30;;;2.10;;
10465;SDS011;5280;42.600;23.556;2023-02-22T13:48:40;2.50;;;2.10;;
10465;SDS011;5280;42.600;23.556;2023-02-22T13:51:42;2.17;;;1.97;;
10465;SDS011;5280;42.600;23.556;2023-02-22T13:54:15;3.03;;;1.97;;
10465;SDS011;5280;42.600;23.556;2023-02-22T13:56:47;1.70;;;1.60;;
10465;SDS011;5280;42.600;23.556;2023-02-22T13:59:28;2.87;;;2.07;;
10465;SDS011;5280;42.600;23.556;2023-02-22T14:01:56;2.00;;;1.80;;
10465;SDS011;5280;42.600;23.556;2023-02-22T14:04:36;2.03;;;1.83;;
10465;SDS011;5280;42.600;23.556;2023-02-22T14:13:19;3.67;;;2.20;;
10465;SDS011;5280;42.600;23.556;2023-02-22T14:18:45;2.40;;;2.20;;
10465;SDS011;5280;42.600;23.556;2023-02-22T14:21:14;2.50;;;2.17;;
10465;SDS011;5280;42.600;23.556;2023-02-22T14:23:44;2.73;;;2.10;;
10465;SDS011;5280;42.600;23.556;2023-02-22T14:26:13;4.63;;;2.30;;
10465;SDS011;5280;42.600;23.556;2023-02-22T14:28:48;2.70;;;2.20;;
10465;SDS011;5280;42.600;23.556;2023-02-22T14:31:20;3.37;;;2.50;;
10465;SDS011;5280;42.600;23.556;2023-02-22T14:33:56;2.57;;;2.37;;
10465;SDS011;5280;42.600;23.556;2023-02-22T14:36:33;2.50;;;2.30;;
10465;SDS011;5280;42.600;23.556;2023-02-22T14:39:07;3.83;;;2.50;;
10465;SDS011;5280;42.600;23.556;2023-02-22T14:41:39;2.37;;;2.17;;
10465;SDS011;5280;42.600;23.556;2023-02-22T14:44:13;3.23;;;2.20;;
10465;SDS011;5280;42.600;23.556;2023-02-22T14:46:47;2.33;;;2.10;;
10465;SDS011;5280;42.600;23.556;2023-02-22T14:49:18;2.10;;;1.97;;
10465;SDS011;5280;42.600;23.556;2023-02-22T14:51:49;1.80;;;1.70;;
10465;SDS011;5280;42.600;23.556;2023-02-22T14:54:22;3.50;;;2.03;;
10465;SDS011;5280;42.600;23.556;2023-02-22T14:56:55;2.13;;;2.00;;
10465;SDS011;5280;42.600;23.556;2023-02-22T14:59:43;2.33;;;2.13;;
10465;SDS011;5280;42.600;23.556;2023-02-22T15:02:17;3.83;;;2.43;;
10465;SDS011;5280;42.600;23.556;2023-02-22T15:04:50;2.40;;;2.03;;
10465;SDS011;5280;42.600;23.556;2023-02-22T15:07:22;3.10;;;2.00;;
10465;SDS011;5280;42.600;23.556;2023-02-22T15:10:04;3.33;;;2.67;;
10465;SDS011;5280;42.600;23.556;2023-02-22T15:12:32;4.23;;;2.57;;
10465;SDS011;5280;42.600;23.556;2023-02-22T15:15:10;4.03;;;2.00;;
10465;SDS011;5280;42.600;23.556;2023-02-22T15:17:40;4.80;;;2.50;;
10465;SDS011;5280;42.600;23.556;2023-02-22T15:20:11;2.07;;;1.87;;
10465;SDS011;5280;42.600;23.556;2023-02-22T15:22:45;2.23;;;2.03;;
10465;SDS011;5280;42.600;23.556;2023-02-22T15:25:14;2.73;;;1.97;;
10465;SDS011;5280;42.600;23.556;2023-02-22T15:27:49;1.93;;;1.80;;
10465;SDS011;5280;42.600;23.556;2023-02-22T15:30:17;4.70;;;1.90;;
10465;SDS011;5280;42.600;23.556;2023-02-22T15:32:48;3.37;;;1.90;;
10465;SDS011;5280;42.600;23.556;2023-02-22T15:35:18;3.30;;;2.20;;
10465;SDS011;5280;42.600;23.556;2023-02-22T15:37:57;2.30;;;2.10;;
10465;SDS011;5280;42.600;23.556;2023-02-22T15:40:25;2.63;;;2.10;;